Alexander 3 — SW6137 — position and weather

sailwx.info

Track history (hours):
 
Tides and Currents Weather Stations Pressure Air Temp Water Temp Dewpoint Dewpoint Depression Visibility Wind Speed Wind Dir Waves Ship Positions

Alexander 3

Last reported at 2016-Sep-26 13:33 UTC. Time now 2016-Sep-26 15:36 UTC.
Position N 37°58' E 023°34'.

Length 38 m; draft 5.6 m.

Type: Tug. MMSI: 240733000.

Date/timePositionNaut miles runAvg speedWind from/ knotsBaromVisibWave heightAir tempDewpointWater temp
2016-Sep-26 13:33N 37°58' E 023°34'0 0.0
2016-Sep-26 11:34N 37°58' E 023°34'0 0.0
2016-Sep-26 08:33N 37°58' E 023°34'2 0.1
2016-Sep-25 11:34N 37°57' E 023°36'1 1.2
2016-Sep-25 10:33N 37°56' E 023°35'2 1.7
2016-Sep-25 09:33N 37°57' E 023°36'0 0.0
2016-Sep-25 07:33N 37°57' E 023°36'1 0.4
2016-Sep-25 04:33N 37°57' E 023°35'0 0.1
2016-Sep-25 00:34N 37°57' E 023°35'1 0.4
2016-Sep-24 22:34N 37°57' E 023°36'0 0.0
2016-Sep-24 21:33N 37°57' E 023°36'1 0.6
2016-Sep-24 19:34N 37°57' E 023°35'1 1.1
2016-Sep-24 18:34N 37°57' E 023°36'1 1.2
2016-Sep-24 17:33N 37°56' E 023°36'1 1.2
2016-Sep-24 16:34N 37°57' E 023°36'0 0.0
2016-Sep-24 14:34N 37°57' E 023°36'0 0.0
2016-Sep-24 12:34N 37°57' E 023°36'0 0.0
2016-Sep-24 10:34N 37°57' E 023°36'0 0.0
2016-Sep-24 09:34N 37°57' E 023°36'0 0.0
2016-Sep-24 03:34N 37°57' E 023°36'0 0.0
2016-Sep-24 02:34N 37°57' E 023°36'0 0.0
2016-Sep-24 01:34N 37°57' E 023°36'0 0.0
2016-Sep-24 00:34N 37°57' E 023°36'1 0.3
2016-Sep-23 19:33N 37°57' E 023°35'1 0.6
2016-Sep-23 17:34N 37°57' E 023°36'3 3.2
2016-Sep-23 16:33N 37°59' E 023°33'4 3.5
2016-Sep-23 15:34N 38°02' E 023°30'2 0.8
2016-Sep-23 13:34N 38°02' E 023°32'1 0.4
2016-Sep-23 09:34N 38°02' E 023°31'8 2.6
2016-Sep-23 06:34N 37°56' E 023°37'0 0.0
2016-Sep-22 04:33N 37°56' E 023°37'0 0.0
2016-Sep-22 03:33N 37°56' E 023°37'1 0.5
2016-Sep-22 00:33N 37°57' E 023°36'0 0.0
2016-Sep-21 23:34N 37°57' E 023°36'0 0.0
2016-Sep-21 22:34N 37°57' E 023°36'0 0.0
2016-Sep-21 19:34N 37°57' E 023°36'0 0.0
2016-Sep-21 16:34N 37°57' E 023°36'2 0.2
2016-Sep-21 09:33N 37°56' E 023°37'0 0.0
2016-Sep-21 08:33N 37°56' E 023°37'0 0.0
2016-Sep-21 05:34N 37°56' E 023°37'0 0.0
2016-Sep-21 03:34N 37°56' E 023°37'0 0.0
2016-Sep-20 10:33N 37°56' E 023°37'0 0.0
2016-Sep-20 08:34N 37°56' E 023°37'0 0.0
2016-Sep-20 07:33N 37°56' E 023°37'0 0.0
2016-Sep-20 06:34N 37°56' E 023°37'1 0.1
2016-Sep-19 16:33N 37°57' E 023°36'1 0.7
2016-Sep-19 14:34N 37°56' E 023°37'7 6.7
2016-Sep-19 13:33N 38°00' E 023°31'0 0.4
2016-Sep-19 12:34N 38°01' E 023°30'0 0.4
2016-Sep-19 11:33N 38°00' E 023°31'2 0.9
2016-Sep-19 09:33N 37°60' E 023°33'5 2.4
2016-Sep-19 07:33N 37°56' E 023°36'2 1.8
2016-Sep-19 06:33N 37°57' E 023°36'0 0.0
2016-Sep-19 03:33N 37°57' E 023°36'0 0.0
2016-Sep-19 02:33N 37°57' E 023°36'2 0.9
2016-Sep-19 00:33N 37°56' E 023°35'2 0.4
2016-Sep-18 19:33N 37°57' E 023°36'0 0.0
2016-Sep-18 15:33N 37°57' E 023°36'0 0.0
2016-Sep-18 14:33N 37°57' E 023°36'0 0.0
2016-Sep-18 10:33N 37°57' E 023°36'0 0.0
2016-Sep-18 09:33N 37°57' E 023°36'2 0.1
2016-Sep-17 10:33N 37°56' E 023°37'3 2.6
2016-Sep-17 09:34N 37°55' E 023°34'9 8.7
2016-Sep-17 08:33N 37°54' E 023°23'4 4.3
2016-Sep-17 07:34N 37°58' E 023°24'5 2.6
2016-Sep-17 05:33N 38°00' E 023°30'6 5.9
2016-Sep-17 04:33N 37°57' E 023°36'  
Track history (hours):
 
Tides and Currents Weather Stations Pressure Air Temp Water Temp Dewpoint Dewpoint Depression Visibility Wind Speed Wind Dir Waves Ship Positions

Alexander 3

Last reported at 2016-Sep-26 13:33 UTC. Time now 2016-Sep-26 15:36 UTC.
Position N 37°58' E 023°34'.

Length 38 m; draft 5.6 m.

Type: Tug. MMSI: 240733000.

Date/timePositionNaut miles runAvg speedWind from/ knotsBaromVisibWave heightAir tempDewpointWater temp
2016-Sep-26 13:33N 37°58' E 023°34'0 0.0
2016-Sep-26 11:34N 37°58' E 023°34'0 0.0
2016-Sep-26 08:33N 37°58' E 023°34'2 0.1
2016-Sep-25 11:34N 37°57' E 023°36'1 1.2
2016-Sep-25 10:33N 37°56' E 023°35'2 1.7
2016-Sep-25 09:33N 37°57' E 023°36'0 0.0
2016-Sep-25 07:33N 37°57' E 023°36'1 0.4
2016-Sep-25 04:33N 37°57' E 023°35'0 0.1
2016-Sep-25 00:34N 37°57' E 023°35'1 0.4
2016-Sep-24 22:34N 37°57' E 023°36'0 0.0
2016-Sep-24 21:33N 37°57' E 023°36'1 0.6
2016-Sep-24 19:34N 37°57' E 023°35'1 1.1
2016-Sep-24 18:34N 37°57' E 023°36'1 1.2
2016-Sep-24 17:33N 37°56' E 023°36'1 1.2
2016-Sep-24 16:34N 37°57' E 023°36'0 0.0
2016-Sep-24 14:34N 37°57' E 023°36'0 0.0
2016-Sep-24 12:34N 37°57' E 023°36'0 0.0
2016-Sep-24 10:34N 37°57' E 023°36'0 0.0
2016-Sep-24 09:34N 37°57' E 023°36'0 0.0
2016-Sep-24 03:34N 37°57' E 023°36'0 0.0
2016-Sep-24 02:34N 37°57' E 023°36'0 0.0
2016-Sep-24 01:34N 37°57' E 023°36'0 0.0
2016-Sep-24 00:34N 37°57' E 023°36'1 0.3
2016-Sep-23 19:33N 37°57' E 023°35'1 0.6
2016-Sep-23 17:34N 37°57' E 023°36'3 3.2
2016-Sep-23 16:33N 37°59' E 023°33'4 3.5
2016-Sep-23 15:34N 38°02' E 023°30'2 0.8
2016-Sep-23 13:34N 38°02' E 023°32'1 0.4
2016-Sep-23 09:34N 38°02' E 023°31'8 2.6
2016-Sep-23 06:34N 37°56' E 023°37'0 0.0
2016-Sep-22 04:33N 37°56' E 023°37'0 0.0
2016-Sep-22 03:33N 37°56' E 023°37'1 0.5
2016-Sep-22 00:33N 37°57' E 023°36'0 0.0
2016-Sep-21 23:34N 37°57' E 023°36'0 0.0
2016-Sep-21 22:34N 37°57' E 023°36'0 0.0
2016-Sep-21 19:34N 37°57' E 023°36'0 0.0
2016-Sep-21 16:34N 37°57' E 023°36'2 0.2
2016-Sep-21 09:33N 37°56' E 023°37'0 0.0
2016-Sep-21 08:33N 37°56' E 023°37'0 0.0
2016-Sep-21 05:34N 37°56' E 023°37'0 0.0
2016-Sep-21 03:34N 37°56' E 023°37'0 0.0
2016-Sep-20 10:33N 37°56' E 023°37'0 0.0
2016-Sep-20 08:34N 37°56' E 023°37'0 0.0
2016-Sep-20 07:33N 37°56' E 023°37'0 0.0
2016-Sep-20 06:34N 37°56' E 023°37'1 0.1
2016-Sep-19 16:33N 37°57' E 023°36'1 0.7
2016-Sep-19 14:34N 37°56' E 023°37'7 6.7
2016-Sep-19 13:33N 38°00' E 023°31'0 0.4
2016-Sep-19 12:34N 38°01' E 023°30'0 0.4
2016-Sep-19 11:33N 38°00' E 023°31'2 0.9
2016-Sep-19 09:33N 37°60' E 023°33'5 2.4
2016-Sep-19 07:33N 37°56' E 023°36'2 1.8
2016-Sep-19 06:33N 37°57' E 023°36'0 0.0
2016-Sep-19 03:33N 37°57' E 023°36'0 0.0
2016-Sep-19 02:33N 37°57' E 023°36'2 0.9
2016-Sep-19 00:33N 37°56' E 023°35'2 0.4
2016-Sep-18 19:33N 37°57' E 023°36'0 0.0
2016-Sep-18 15:33N 37°57' E 023°36'0 0.0
2016-Sep-18 14:33N 37°57' E 023°36'0 0.0
2016-Sep-18 10:33N 37°57' E 023°36'0 0.0
2016-Sep-18 09:33N 37°57' E 023°36'2 0.1
2016-Sep-17 10:33N 37°56' E 023°37'3 2.6
2016-Sep-17 09:34N 37°55' E 023°34'9 8.7
2016-Sep-17 08:33N 37°54' E 023°23'4 4.3
2016-Sep-17 07:34N 37°58' E 023°24'5 2.6
2016-Sep-17 05:33N 38°00' E 023°30'6 5.9
2016-Sep-17 04:33N 37°57' E 023°36'  

Dump ship's entire track history